createdAt,value
2018-05-02T00:07:05.000Z,36.9
2018-05-02T00:17:05.000Z,36.8
2018-05-02T00:27:05.000Z,36.7
2018-05-02T00:37:05.000Z,36.5
2018-05-02T00:47:05.000Z,36.7
2018-05-02T00:57:05.000Z,36.7
2018-05-02T01:07:05.000Z,36.7
2018-05-02T01:17:05.000Z,36.9
2018-05-02T01:27:05.000Z,37
2018-05-02T01:37:05.000Z,37.3
2018-05-02T01:47:05.000Z,37.4
2018-05-02T01:57:05.000Z,37.6
2018-05-02T02:07:05.000Z,37.6
2018-05-02T02:17:05.000Z,37.8
2018-05-02T02:27:05.000Z,37.9
2018-05-02T02:37:05.000Z,37.9
2018-05-02T02:47:05.000Z,38
2018-05-02T02:57:05.000Z,38.3
2018-05-02T03:07:05.000Z,38
2018-05-02T03:17:05.000Z,38.5
2018-05-02T03:27:06.000Z,38.6
2018-05-02T03:37:05.000Z,38.7
2018-05-02T03:47:05.000Z,38.8
2018-05-02T03:57:05.000Z,38.9
2018-05-02T04:07:06.000Z,40.6
2018-05-02T04:17:06.000Z,38.9
2018-05-02T04:27:06.000Z,38.6
2018-05-02T04:37:06.000Z,38.5
2018-05-02T04:47:06.000Z,38.5
2018-05-02T04:57:06.000Z,38.5
2018-05-02T05:07:06.000Z,38.7
2018-05-02T05:17:06.000Z,38.6
2018-05-02T05:27:06.000Z,38.5
2018-05-02T05:37:06.000Z,38.3
2018-05-02T05:47:06.000Z,38
2018-05-02T05:57:06.000Z,38.1
2018-05-02T06:07:06.000Z,38.3
2018-05-02T06:17:07.000Z,38.2
2018-05-02T06:27:06.000Z,38.2
2018-05-02T06:37:08.000Z,38.7
2018-05-02T06:47:06.000Z,40.3
2018-05-02T06:57:06.000Z,47.6
2018-05-02T07:07:06.000Z,47.9
2018-05-02T07:17:06.000Z,47.4
2018-05-02T07:27:06.000Z,47.5
2018-05-02T07:37:06.000Z,47.3
2018-05-02T07:47:06.000Z,48
2018-05-02T07:57:06.000Z,48.3
2018-05-02T08:07:06.000Z,48.5
2018-05-02T08:17:06.000Z,48.6
2018-05-02T08:27:06.000Z,48.5
2018-05-02T08:37:06.000Z,48.8
2018-05-02T08:47:06.000Z,48.7
2018-05-02T08:57:06.000Z,48.5
2018-05-02T09:07:06.000Z,48.2
2018-05-02T09:17:06.000Z,49
2018-05-02T09:27:06.000Z,49.6
2018-05-02T09:37:06.000Z,50.2
2018-05-02T09:47:06.000Z,50.6
2018-05-02T09:57:06.000Z,50.6
2018-05-02T10:07:06.000Z,50.2
2018-05-02T10:17:06.000Z,50.9
2018-05-02T10:27:06.000Z,52.2
2018-05-02T10:37:06.000Z,51.8
2018-05-02T10:47:07.000Z,51.7
2018-05-02T10:57:06.000Z,51.5
2018-05-02T11:07:07.000Z,51.1
2018-05-02T11:17:07.000Z,50.9
2018-05-02T11:27:08.000Z,50.5
2018-05-02T11:37:07.000Z,50.5
2018-05-02T11:47:07.000Z,50.2
2018-05-02T11:57:07.000Z,49.9
2018-05-02T12:07:07.000Z,49.8
2018-05-02T12:17:07.000Z,49.7
2018-05-02T12:27:07.000Z,49.5
2018-05-02T12:37:07.000Z,49.3
2018-05-02T12:47:07.000Z,49.2
2018-05-02T12:57:07.000Z,49
2018-05-02T13:07:07.000Z,48.9
2018-05-02T13:17:07.000Z,48.8
2018-05-02T13:27:07.000Z,48.5
2018-05-02T13:37:07.000Z,48.6
2018-05-02T13:47:07.000Z,48.6
2018-05-02T13:57:07.000Z,48.5
2018-05-02T14:07:07.000Z,48.6
2018-05-02T14:17:07.000Z,48.4
2018-05-02T14:27:07.000Z,47.9
2018-05-02T14:37:07.000Z,47.8
2018-05-02T14:47:07.000Z,47.7
2018-05-02T14:57:07.000Z,47.5
2018-05-02T15:07:07.000Z,47.7
2018-05-02T15:17:07.000Z,47.5
2018-05-02T15:27:07.000Z,47.4
2018-05-02T15:37:07.000Z,47.4
2018-05-02T15:47:07.000Z,47.2
2018-05-02T15:57:07.000Z,46.9
2018-05-02T16:07:07.000Z,47.2
2018-05-02T16:17:07.000Z,46.9
2018-05-02T16:27:07.000Z,46.8
2018-05-02T16:37:07.000Z,47.1
2018-05-02T16:47:07.000Z,46.5
2018-05-02T16:57:07.000Z,46.4
2018-05-02T17:07:07.000Z,46.1
2018-05-02T17:17:07.000Z,46
2018-05-02T17:27:07.000Z,46.2
2018-05-02T17:37:07.000Z,45.6
2018-05-02T17:47:07.000Z,45.6
2018-05-02T17:57:08.000Z,45.7
2018-05-02T18:07:09.000Z,45.7
2018-05-02T18:17:08.000Z,45.4
2018-05-02T18:27:08.000Z,45.5
2018-05-02T18:37:09.000Z,45.4
2018-05-02T18:47:08.000Z,45.4
2018-05-02T18:57:08.000Z,45
2018-05-02T19:07:08.000Z,44.9
2018-05-02T19:17:08.000Z,44.7
2018-05-02T19:27:08.000Z,44.5
2018-05-02T19:37:08.000Z,44.3
2018-05-02T19:47:08.000Z,44
2018-05-02T19:57:08.000Z,44.2
2018-05-02T20:07:08.000Z,44.3
2018-05-02T20:17:08.000Z,44.1
2018-05-02T20:27:08.000Z,43.9
2018-05-02T20:37:08.000Z,43.9
2018-05-02T20:47:08.000Z,43.7
2018-05-02T20:57:08.000Z,43.7
2018-05-02T21:07:08.000Z,44.2
2018-05-02T21:17:08.000Z,40
2018-05-02T21:37:08.000Z,38.4
2018-05-02T21:47:08.000Z,37.7
2018-05-02T21:57:08.000Z,37.8
2018-05-02T22:07:08.000Z,37.7
2018-05-02T22:17:08.000Z,37.8
2018-05-02T22:27:08.000Z,37.6
2018-05-02T22:37:08.000Z,37.4
2018-05-02T22:47:08.000Z,37.7
2018-05-02T22:57:08.000Z,38
2018-05-02T23:07:08.000Z,38.2
2018-05-02T23:17:08.000Z,38.5
2018-05-02T23:27:08.000Z,38.7
2018-05-02T23:37:08.000Z,38.6
2018-05-02T23:47:08.000Z,38.7
2018-05-02T23:57:08.000Z,38.7
